Weather at Cogdell Memorial Hospital Heliport

Public forecast

Using degrees Fahrenheit for public forecast. Weather courtesy of forecast.io.

Closest aviation weather report (METAR) to Cogdell Memorial Hospital Heliport

Closest report is Winston Field, 1.7 nm (3.1 km) W. Retrieved 2021/10/18 07:35 UTC (21 minutes ago):

KSNK 180735Z AUTO 15006KT 10SM CLR 10/02 A3012 RMK AO2 T01040015

Closest aviation forecast (TAF) to Cogdell Memorial Hospital Heliport

Closest forecast is Dyess Air Force Base, 56.1 nm (103.9 km) ESE. Retrieved 2021-10-18 04:22 UTC (4 hours ago):

TAF KDYS 180400Z 1804/1910 17009KT 9999 SKC QNH3010INS BECMG 1814/1815 17012G18KT 9999 FEW140 QNH2994INS TEMPO 1820/1822 16015G20KT BKN140 BECMG 1823/1824 16012KT 9999 FEW140 QNH2995INS TX26/1821Z TN09/1812Z